Itirapina, Brazil
Current Conditions -  °F | °C
As of 7:00 AM on Monday 22 Dec 2014 (Local Time) from SBKP Reporting Station
Light Rain Light Rain  
Wind Chill: 72°   Ceiling: 5000
Heat Index: 72°   Visibility: 6mi
Dew Point: 70°   Wind: 9mph
Humidity: 94%   Direction: 20°NNE
Pressure: 29.97"   Gusts: NA
Location:  22.25°S, 47.82°W
Report Text: SBKP 220900Z 02008KT 9999 -RA SCT010 BKN050 BKN090 22/21 Q1015
Loading
Personal Weather Stations






























Interactive Weather Map New forecast layout! Learn more

10-Day Weather Forecast

Advertisements
Track Severe Weather on mobile